Weslaco Annex Farm's Hourly Summary for Thursday, March 16, 2017
Hour Temp
(f)
RH
(%)
Solar Rad.
(MJ/m2)
Rainfall
(in)
Wind
(mph)
3/16/2017 12:00 AM 66 88 0 0 2.82
3/16/2017 1:00 AM 66 91 0 0 2.56
3/16/2017 2:00 AM 65 92 0 0 2.54
3/16/2017 3:00 AM 65 93 0 0 3.18
3/16/2017 4:00 AM 65 94 0 0 2.63
3/16/2017 5:00 AM 65 94 0 0 2.73
3/16/2017 6:00 AM 65 94 0 0 2.7
3/16/2017 7:00 AM 65 94 0.01 0 2.8
3/16/2017 8:00 AM 67 91 0.21 0 2.99
3/16/2017 9:00 AM 72 81 0.6 0 6.69
3/16/2017 10:00 AM 76 73 0.89 0 8.89
3/16/2017 11:00 AM 78 67 1.02 0 9.82
3/16/2017 12:00 PM 79 62 1.18 0 10.28
3/16/2017 1:00 PM 80 60 1.05 0 10.25
3/16/2017 2:00 PM 81 56 1.47 0 12.44
3/16/2017 3:00 PM 81 56 1.21 0 12.33
3/16/2017 4:00 PM 80 57 0.89 0 10.77
3/16/2017 5:00 PM 80 58 0.78 0 9.3
3/16/2017 6:00 PM 78 61 0.36 0 11.48
3/16/2017 7:00 PM 74 68 0.04 0 10.14
3/16/2017 8:00 PM 72 74 0 0 7.48
3/16/2017 9:00 PM 71 79 0 0 6.02
3/16/2017 10:00 PM 70 83 0 0 4.91
3/16/2017 11:00 PM 69 87 0 0 4.22
Data Summary 72 77 9.71 0.00 6.67